Time;durP1;ratioP1;P1;durP2;ratioP2;P2;SDS_P1;SDS_P2;PMS_P1;PMS_P2;Temp;Humidity;BMP_temperature;BMP_pressure;BME280_temperature;BME280_humidity;BME280_pressure;Samples;Min_cycle;Max_cycle;Signal;HPM_P1;HPM_P2
2022/09/16 00:00:36;;;;;;;2.38;2.17;;;;;;;;;;5006145;28;20574;-46
2022/09/16 00:03:02;;;;;;;2.42;2.17;;;;;;;;;;5004819;28;20034;-47
2022/09/16 00:05:28;;;;;;;4.43;2.30;;;;;;;;;;5005301;28;20046;-46
2022/09/16 00:07:54;;;;;;;2.90;2.15;;;;;;;;;;5006389;28;20100;-45
2022/09/16 00:10:21;;;;;;;2.58;2.08;;;;;;;;;;5006722;28;20771;-46
2022/09/16 00:12:48;;;;;;;4.40;1.95;;;;;;;;;;5005848;28;20053;-47
2022/09/16 00:15:14;;;;;;;7.60;2.03;;;;;;;;;;5007313;28;20054;-46
2022/09/16 00:17:39;;;;;;;3.40;1.80;;;;;;;;;;5026409;28;20048;-46
2022/09/16 00:20:06;;;;;;;2.10;1.90;;;;;;;;;;5024824;28;20033;-46
2022/09/16 00:22:33;;;;;;;2.42;1.63;;;;;;;;;;5002892;28;20038;-48
2022/09/16 00:24:58;;;;;;;2.03;1.90;;;;;;;;;;5006091;28;20022;-46
2022/09/16 00:27:24;;;;;;;2.42;1.88;;;;;;;;;;5004722;28;20089;-44
2022/09/16 00:29:49;;;;;;;1.95;1.67;;;;;;;;;;5005435;28;20034;-47
2022/09/16 00:32:15;;;;;;;3.22;1.58;;;;;;;;;;5004149;28;20034;-47
2022/09/16 00:34:40;;;;;;;4.57;2.25;;;;;;;;;;5005594;28;20037;-46
2022/09/16 00:37:09;;;;;;;7.65;1.73;;;;;;;;;;5003385;28;20069;-49
2022/09/16 00:39:36;;;;;;;3.83;2.13;;;;;;;;;;5003453;28;20034;-50
2022/09/16 00:42:03;;;;;;;3.92;1.73;;;;;;;;;;5005152;28;20072;-46
2022/09/16 00:44:48;;;;;;;3.22;1.63;;;;;;;;;;5005867;28;20093;-48
2022/09/16 00:47:16;;;;;;;7.32;1.63;;;;;;;;;;5004259;28;20466;-49
2022/09/16 00:49:42;;;;;;;2.42;1.63;;;;;;;;;;5001759;28;20160;-45
2022/09/16 00:52:08;;;;;;;1.63;1.52;;;;;;;;;;5020736;28;20088;-46
2022/09/16 00:54:37;;;;;;;5.85;2.15;;;;;;;;;;5026134;28;20029;-46
2022/09/16 00:57:05;;;;;;;3.55;1.80;;;;;;;;;;5005970;28;20038;-45
2022/09/16 00:59:34;;;;;;;3.72;1.52;;;;;;;;;;5004373;28;20099;-45
2022/09/16 01:02:05;;;;;;;4.07;1.52;;;;;;;;;;5005873;28;20156;-44
2022/09/16 01:04:38;;;;;;;5.10;1.33;;;;;;;;;;5004871;28;20117;-45
2022/09/16 01:07:04;;;;;;;4.35;2.00;;;;;;;;;;5023298;28;20041;-45
2022/09/16 01:09:30;;;;;;;2.05;1.30;;;;;;;;;;5024217;28;20072;-49
2022/09/16 01:11:56;;;;;;;1.40;1.30;;;;;;;;;;5009189;28;20132;-49
2022/09/16 01:17:26;;;;;;;1.88;1.30;;;;;;;;;;5011732;28;20087;-47
2022/09/16 01:20:16;;;;;;;2.50;1.77;;;;;;;;;;5016187;28;20051;-45
2022/09/16 01:23:12;;;;;;;1.67;1.58;;;;;;;;;;5005623;28;20538;-45
2022/09/16 01:25:52;;;;;;;2.75;1.50;;;;;;;;;;5012566;28;20682;-44
2022/09/16 01:28:45;;;;;;;2.38;1.38;;;;;;;;;;5025513;28;20143;-45
2022/09/16 01:31:16;;;;;;;11.27;1.85;;;;;;;;;;5013573;28;20046;-47
2022/09/16 01:34:06;;;;;;;2.15;1.65;;;;;;;;;;5005701;28;20110;-45
2022/09/16 01:37:10;;;;;;;2.95;1.35;;;;;;;;;;5002732;28;20038;-45
2022/09/16 01:39:42;;;;;;;1.45;1.27;;;;;;;;;;4945270;29;20508;-46
2022/09/16 01:42:16;;;;;;;4.50;1.40;;;;;;;;;;4962119;28;20381;-46
2022/09/16 01:45:14;;;;;;;3.90;1.63;;;;;;;;;;4964711;28;20046;-47
2022/09/16 01:47:50;;;;;;;1.30;1.20;;;;;;;;;;4965830;28;20046;-45
2022/09/16 01:50:38;;;;;;;1.25;1.15;;;;;;;;;;4966251;28;20043;-45
2022/09/16 01:53:07;;;;;;;3.13;1.50;;;;;;;;;;4965853;28;20089;-45
2022/09/16 01:55:40;;;;;;;1.25;1.15;;;;;;;;;;4949086;28;20043;-45
2022/09/16 01:58:18;;;;;;;1.75;1.65;;;;;;;;;;4965867;28;20497;-44
2022/09/16 02:00:46;;;;;;;1.30;1.20;;;;;;;;;;4959325;28;20057;-45
2022/09/16 02:03:21;;;;;;;4.32;1.35;;;;;;;;;;4966031;28;20038;-48
2022/09/16 02:05:52;;;;;;;6.70;1.15;;;;;;;;;;4967192;28;20045;-46
2022/09/16 02:08:30;;;;;;;1.55;1.27;;;;;;;;;;4970696;28;20054;-45
2022/09/16 02:10:58;;;;;;;3.88;1.40;;;;;;;;;;4968710;28;20133;-45
2022/09/16 02:13:40;;;;;;;1.85;1.10;;;;;;;;;;4969406;28;20169;-47
2022/09/16 02:16:11;;;;;;;2.65;1.13;;;;;;;;;;4978406;28;20033;-47
2022/09/16 02:18:40;;;;;;;1.40;1.30;;;;;;;;;;5029122;28;20033;-44
2022/09/16 02:21:10;;;;;;;3.80;1.42;;;;;;;;;;5026504;28;20037;-44
2022/09/16 02:23:42;;;;;;;2.60;1.10;;;;;;;;;;5029272;28;20055;-46
2022/09/16 02:26:13;;;;;;;1.52;1.35;;;;;;;;;;5027781;28;20049;-49
2022/09/16 02:28:42;;;;;;;4.93;1.60;;;;;;;;;;5026094;28;20101;-44
2022/09/16 02:31:10;;;;;;;1.98;1.45;;;;;;;;;;5019666;28;20041;-45
2022/09/16 02:33:43;;;;;;;2.00;1.10;;;;;;;;;;5006539;28;20102;-45
2022/09/16 02:36:13;;;;;;;3.80;1.52;;;;;;;;;;5014370;28;20048;-46
2022/09/16 02:38:44;;;;;;;3.58;1.50;;;;;;;;;;5028458;28;20168;-44
2022/09/16 02:41:13;;;;;;;;;;;;;;;;;;5027849;28;20098;-44
2022/09/16 02:43:40;;;;;;;2.80;1.27;;;;;;;;;;5027567;28;19917;-45
2022/09/16 02:46:38;;;;;;;2.30;1.30;;;;;;;;;;5018494;28;20494;-46
2022/09/16 02:49:48;;;;;;;3.67;1.52;;;;;;;;;;5005293;28;20072;-46
2022/09/16 02:52:27;;;;;;;3.78;1.02;;;;;;;;;;5000789;28;20138;-47
2022/09/16 02:55:05;;;;;;;1.30;1.20;;;;;;;;;;5006952;28;20038;-46
2022/09/16 02:57:31;;;;;;;1.48;1.30;;;;;;;;;;5007006;28;20562;-44
2022/09/16 02:59:57;;;;;;;1.77;1.30;;;;;;;;;;5007990;28;20033;-44
2022/09/16 03:02:22;;;;;;;1.30;1.20;;;;;;;;;;5006148;28;20053;-45
2022/09/16 03:04:48;;;;;;;5.05;1.50;;;;;;;;;;5007872;28;20100;-46
2022/09/16 03:07:14;;;;;;;1.42;1.33;;;;;;;;;;4987699;28;20038;-45
2022/09/16 03:09:44;;;;;;;1.30;1.13;;;;;;;;;;5005023;28;20123;-45
2022/09/16 03:12:20;;;;;;;3.05;1.40;;;;;;;;;;5005649;28;20049;-45
2022/09/16 03:14:58;;;;;;;1.48;1.20;;;;;;;;;;5007281;28;20037;-45
2022/09/16 03:18:01;;;;;;;2.30;1.20;;;;;;;;;;5003416;28;20044;-45
2022/09/16 03:20:29;;;;;;;4.28;1.52;;;;;;;;;;5006304;28;20113;-45
2022/09/16 03:23:18;;;;;;;6.38;1.40;;;;;;;;;;5006687;28;20601;-45
2022/09/16 03:26:04;;;;;;;2.00;1.38;;;;;;;;;;5006543;28;20507;-48
2022/09/16 03:29:01;;;;;;;2.90;1.42;;;;;;;;;;5024526;28;20057;-46
2022/09/16 03:31:34;;;;;;;1.38;1.25;;;;;;;;;;5025280;28;20038;-44
2022/09/16 03:34:09;;;;;;;1.50;1.40;;;;;;;;;;5026419;28;20042;-45
2022/09/16 03:36:41;;;;;;;2.78;1.50;;;;;;;;;;5027223;28;20033;-45
2022/09/16 03:39:09;;;;;;;;;;;;;;;;;;5027639;28;20048;-46
2022/09/16 03:41:35;;;;;;;2.20;1.40;;;;;;;;;;5025945;28;20424;-46
2022/09/16 03:44:01;;;;;;;1.65;1.20;;;;;;;;;;5025352;28;20029;-45
2022/09/16 03:46:27;;;;;;;3.03;1.20;;;;;;;;;;5024110;28;20037;-44
2022/09/16 03:48:56;;;;;;;3.03;1.30;;;;;;;;;;5026271;28;20091;-46
2022/09/16 03:51:22;;;;;;;4.72;1.63;;;;;;;;;;5017428;28;20681;-46
2022/09/16 03:53:49;;;;;;;2.67;1.30;;;;;;;;;;5004770;28;20036;-44
2022/09/16 03:56:15;;;;;;;2.08;1.63;;;;;;;;;;5004762;28;20092;-45
2022/09/16 03:58:40;;;;;;;1.30;1.20;;;;;;;;;;5005996;28;20042;-45
2022/09/16 04:01:06;;;;;;;1.42;1.27;;;;;;;;;;5014532;28;20449;-45
2022/09/16 04:03:32;;;;;;;1.30;1.20;;;;;;;;;;5026629;28;20532;-44
2022/09/16 04:05:57;;;;;;;1.98;1.30;;;;;;;;;;5019246;28;20068;-46
2022/09/16 04:08:23;;;;;;;3.25;1.30;;;;;;;;;;5006678;28;20028;-46
2022/09/16 04:10:54;;;;;;;1.48;1.38;;;;;;;;;;5006381;28;20478;-42
2022/09/16 04:13:20;;;;;;;4.43;1.23;;;;;;;;;;5006360;28;20471;-45
2022/09/16 04:15:45;;;;;;;3.03;1.38;;;;;;;;;;5004897;28;20053;-49
2022/09/16 04:18:11;;;;;;;7.68;1.50;;;;;;;;;;5007616;28;20753;-45
2022/09/16 04:20:36;;;;;;;4.53;1.30;;;;;;;;;;5008201;28;20076;-45
2022/09/16 04:23:02;;;;;;;11.88;1.83;;;;;;;;;;5003719;28;20034;-45
2022/09/16 04:25:29;;;;;;;2.80;1.45;;;;;;;;;;5006169;28;20050;-44
2022/09/16 04:27:54;;;;;;;2.00;1.30;;;;;;;;;;5003913;28;20395;-44
2022/09/16 04:30:20;;;;;;;1.40;1.30;;;;;;;;;;5005359;28;20026;-45
2022/09/16 04:32:45;;;;;;;3.40;1.60;;;;;;;;;;5007196;28;20471;-46
2022/09/16 04:35:11;;;;;;;2.08;1.52;;;;;;;;;;5006988;28;20038;-42
2022/09/16 04:37:37;;;;;;;4.07;1.50;;;;;;;;;;5006011;28;20108;-45
2022/09/16 04:40:03;;;;;;;6.28;1.60;;;;;;;;;;5006091;28;20054;-44
2022/09/16 04:42:28;;;;;;;2.72;1.52;;;;;;;;;;5005218;28;20136;-44
2022/09/16 04:44:54;;;;;;;3.13;1.45;;;;;;;;;;5006625;28;20117;-45
2022/09/16 04:47:19;;;;;;;4.75;1.40;;;;;;;;;;5004291;28;20034;-44
2022/09/16 04:49:45;;;;;;;2.80;1.50;;;;;;;;;;5004823;28;20493;-45
2022/09/16 04:52:10;;;;;;;1.73;1.52;;;;;;;;;;5019222;28;20173;-44
2022/09/16 04:54:36;;;;;;;5.10;1.30;;;;;;;;;;5022572;28;20393;-44
2022/09/16 04:57:02;;;;;;;1.27;1.17;;;;;;;;;;5007013;28;20049;-47
2022/09/16 04:59:27;;;;;;;1.20;1.20;;;;;;;;;;5005655;28;20025;-45
2022/09/16 05:01:53;;;;;;;1.40;1.30;;;;;;;;;;5019174;28;20437;-44
2022/09/16 05:04:19;;;;;;;2.53;1.50;;;;;;;;;;5025328;28;20041;-47
2022/09/16 05:06:44;;;;;;;6.38;1.35;;;;;;;;;;5011948;28;20506;-44
2022/09/16 05:09:11;;;;;;;3.85;1.60;;;;;;;;;;5004600;28;20033;-48
2022/09/16 05:11:38;;;;;;;5.75;1.60;;;;;;;;;;5005764;28;20042;-45
2022/09/16 05:14:06;;;;;;;1.42;1.25;;;;;;;;;;5005543;28;20079;-45
2022/09/16 05:16:33;;;;;;;2.88;1.35;;;;;;;;;;5005495;28;20061;-47
2022/09/16 05:19:02;;;;;;;1.75;1.20;;;;;;;;;;5004570;28;20065;-44
2022/09/16 05:21:28;;;;;;;1.35;1.20;;;;;;;;;;5002403;28;20033;-48
2022/09/16 05:23:54;;;;;;;3.17;1.25;;;;;;;;;;5003814;28;21354;-44
2022/09/16 05:26:26;;;;;;;1.17;1.00;;;;;;;;;;5005683;28;20042;-48
2022/09/16 05:28:52;;;;;;;2.28;1.33;;;;;;;;;;4999780;28;20037;-45
2022/09/16 05:31:22;;;;;;;1.40;1.30;;;;;;;;;;5004519;28;20128;-45
2022/09/16 05:34:09;;;;;;;2.70;1.25;;;;;;;;;;5021845;28;20038;-48
2022/09/16 05:36:37;;;;;;;2.38;1.40;;;;;;;;;;5006723;28;20034;-45
2022/09/16 05:39:04;;;;;;;2.78;1.65;;;;;;;;;;5003726;28;20034;-45
2022/09/16 05:41:29;;;;;;;1.73;1.40;;;;;;;;;;5003869;28;20053;-48
2022/09/16 05:43:57;;;;;;;4.65;1.50;;;;;;;;;;5006847;28;20026;-44
2022/09/16 05:46:23;;;;;;;3.20;1.45;;;;;;;;;;5014641;28;20109;-46
2022/09/16 05:48:49;;;;;;;2.75;1.63;;;;;;;;;;5024254;28;20026;-45
2022/09/16 05:51:20;;;;;;;2.25;1.10;;;;;;;;;;5021881;28;20454;-45
2022/09/16 05:53:47;;;;;;;1.88;1.20;;;;;;;;;;5023300;28;20115;-44
2022/09/16 05:56:18;;;;;;;2.03;1.40;;;;;;;;;;5016143;28;20045;-48
2022/09/16 05:58:44;;;;;;;1.17;1.08;;;;;;;;;;5006340;28;20046;-50
2022/09/16 06:01:16;;;;;;;1.42;1.25;;;;;;;;;;5007084;28;20052;-46
2022/09/16 06:03:45;;;;;;;2.75;2.30;;;;;;;;;;5004828;28;20061;-47
2022/09/16 06:06:10;;;;;;;2.78;1.27;;;;;;;;;;5013072;28;20099;-46
2022/09/16 06:08:36;;;;;;;2.65;1.27;;;;;;;;;;5023415;28;20030;-46
2022/09/16 06:11:04;;;;;;;1.40;1.10;;;;;;;;;;5017593;28;20069;-46
2022/09/16 06:13:30;;;;;;;5.78;1.58;;;;;;;;;;5003818;28;20053;-45
2022/09/16 06:15:56;;;;;;;5.70;1.40;;;;;;;;;;5004862;28;20415;-45
2022/09/16 06:18:24;;;;;;;2.22;1.40;;;;;;;;;;5004085;28;20108;-47
2022/09/16 06:20:50;;;;;;;4.03;1.30;;;;;;;;;;5009071;28;20104;-46
2022/09/16 06:23:16;;;;;;;2.42;1.70;;;;;;;;;;5029564;28;20115;-48
2022/09/16 06:25:43;;;;;;;2.92;1.42;;;;;;;;;;5021871;28;20042;-50
2022/09/16 06:28:10;;;;;;;2.35;1.42;;;;;;;;;;5006335;28;20428;-45
2022/09/16 06:30:37;;;;;;;1.65;1.40;;;;;;;;;;5004876;28;20130;-46
2022/09/16 06:33:03;;;;;;;3.00;1.30;;;;;;;;;;5007639;28;20037;-48
2022/09/16 06:35:29;;;;;;;5.82;1.73;;;;;;;;;;5007242;28;20037;-47
2022/09/16 06:37:55;;;;;;;1.40;1.30;;;;;;;;;;5029440;28;20033;-46
2022/09/16 06:40:20;;;;;;;1.90;1.17;;;;;;;;;;5025613;28;20537;-47
2022/09/16 06:42:46;;;;;;;1.60;1.10;;;;;;;;;;5001072;28;20267;-46
2022/09/16 06:45:11;;;;;;;1.30;1.20;;;;;;;;;;5005493;28;20030;-46
2022/09/16 06:47:37;;;;;;;1.88;1.45;;;;;;;;;;5012193;28;20474;-46
2022/09/16 06:50:04;;;;;;;1.17;1.08;;;;;;;;;;5014999;28;20072;-46
2022/09/16 06:52:30;;;;;;;1.85;1.10;;;;;;;;;;5007726;28;20566;-46
2022/09/16 06:54:56;;;;;;;7.65;1.48;;;;;;;;;;5017329;28;20069;-47
2022/09/16 06:57:23;;;;;;;2.25;1.17;;;;;;;;;;5012196;28;20106;-48
2022/09/16 06:59:49;;;;;;;3.08;1.23;;;;;;;;;;5005923;28;20550;-46
2022/09/16 07:02:16;;;;;;;1.92;1.10;;;;;;;;;;5020606;28;20636;-48
2022/09/16 07:04:42;;;;;;;3.47;1.30;;;;;;;;;;5022962;28;20094;-49
2022/09/16 07:07:08;;;;;;;1.45;1.30;;;;;;;;;;5005907;28;20038;-49
2022/09/16 07:09:33;;;;;;;3.92;1.23;;;;;;;;;;5004007;28;20185;-47
2022/09/16 07:11:59;;;;;;;2.90;1.30;;;;;;;;;;5002681;28;20440;-47
2022/09/16 07:14:26;;;;;;;2.35;1.30;;;;;;;;;;5005804;28;20595;-47
2022/09/16 07:16:52;;;;;;;5.95;1.20;;;;;;;;;;5002060;28;20638;-47
2022/09/16 07:19:18;;;;;;;2.90;1.20;;;;;;;;;;5004958;28;20018;-47
2022/09/16 07:21:43;;;;;;;3.83;1.10;;;;;;;;;;5016018;28;20555;-47
2022/09/16 07:24:11;;;;;;;5.50;1.20;;;;;;;;;;5024057;28;20508;-44
2022/09/16 07:26:39;;;;;;;1.90;1.20;;;;;;;;;;5008512;28;20054;-46
2022/09/16 07:29:11;;;;;;;9.68;1.35;;;;;;;;;;5004974;28;20475;-47
2022/09/16 07:31:37;;;;;;;1.75;1.40;;;;;;;;;;5014210;28;20831;-48
2022/09/16 07:34:06;;;;;;;1.58;1.42;;;;;;;;;;5024135;28;20117;-47
2022/09/16 07:36:35;;;;;;;1.55;1.30;;;;;;;;;;5008054;28;20046;-48
2022/09/16 07:39:01;;;;;;;3.55;2.00;;;;;;;;;;5004231;28;20034;-46
2022/09/16 07:41:39;;;;;;;1.88;1.20;;;;;;;;;;5001611;28;20034;-47
2022/09/16 07:44:06;;;;;;;6.70;1.60;;;;;;;;;;5004837;28;20062;-46
2022/09/16 07:46:34;;;;;;;1.48;1.15;;;;;;;;;;5013506;28;20034;-51
2022/09/16 07:49:02;;;;;;;3.03;1.45;;;;;;;;;;5019968;28;20509;-48
2022/09/16 07:51:29;;;;;;;1.63;1.45;;;;;;;;;;5021518;28;20052;-47
2022/09/16 07:54:01;;;;;;;3.00;1.35;;;;;;;;;;5021938;28;20022;-47
2022/09/16 07:56:27;;;;;;;;;;;;;;;;;;5016905;28;20121;-51
2022/09/16 07:58:54;;;;;;;2.63;1.27;;;;;;;;;;5020763;28;19921;-46
2022/09/16 08:01:20;;;;;;;2.42;1.20;;;;;;;;;;5015056;28;20049;-50
2022/09/16 08:03:46;;;;;;;3.08;1.50;;;;;;;;;;4999739;28;20032;-48
2022/09/16 08:06:13;;;;;;;3.67;1.35;;;;;;;;;;5011889;28;20041;-47
2022/09/16 08:08:39;;;;;;;5.15;1.65;;;;;;;;;;5022614;28;20068;-47
2022/09/16 08:11:05;;;;;;;1.88;1.50;;;;;;;;;;5024122;28;20041;-47
2022/09/16 08:13:33;;;;;;;1.60;1.50;;;;;;;;;;5021926;28;20025;-48
2022/09/16 08:16:07;;;;;;;4.70;1.52;;;;;;;;;;5022836;28;20403;-47
2022/09/16 08:18:33;;;;;;;1.90;1.48;;;;;;;;;;5014805;28;20033;-47
2022/09/16 08:21:17;;;;;;;3.63;1.65;;;;;;;;;;5021760;28;20076;-48
2022/09/16 08:23:43;;;;;;;1.83;1.50;;;;;;;;;;5022165;28;20037;-49
2022/09/16 08:26:11;;;;;;;1.95;1.65;;;;;;;;;;5013139;28;20124;-44
2022/09/16 08:28:39;;;;;;;1.27;1.25;;;;;;;;;;5009718;28;20148;-47
2022/09/16 08:31:04;;;;;;;1.55;1.42;;;;;;;;;;5009763;28;20694;-47
2022/09/16 08:33:30;;;;;;;5.30;1.60;;;;;;;;;;5000797;28;20030;-49
2022/09/16 08:36:01;;;;;;;1.90;1.50;;;;;;;;;;5000999;28;20038;-46
2022/09/16 08:38:27;;;;;;;3.67;1.60;;;;;;;;;;5001063;28;20037;-50
2022/09/16 08:41:23;;;;;;;1.70;1.42;;;;;;;;;;4998812;28;20038;-47
2022/09/16 08:44:29;;;;;;;4.82;1.60;;;;;;;;;;5001687;28;20044;-47
2022/09/16 08:47:05;;;;;;;2.55;1.60;;;;;;;;;;5003248;28;20072;-46
2022/09/16 08:49:47;;;;;;;1.60;1.50;;;;;;;;;;4997815;28;20591;-47
2022/09/16 08:52:31;;;;;;;3.78;1.70;;;;;;;;;;4999970;28;20100;-46
2022/09/16 08:55:41;;;;;;;3.25;1.85;;;;;;;;;;5000728;28;20042;-51
2022/09/16 08:58:42;;;;;;;1.73;1.63;;;;;;;;;;5001752;28;20054;-48
2022/09/16 09:01:19;;;;;;;1.90;1.73;;;;;;;;;;5000858;28;20104;-47
2022/09/16 09:03:46;;;;;;;2.72;1.88;;;;;;;;;;5002406;28;20394;-47
2022/09/16 09:06:50;;;;;;;3.40;2.03;;;;;;;;;;5008172;28;20057;-53
2022/09/16 09:09:30;;;;;;;2.28;2.08;;;;;;;;;;5018972;28;20443;-47
2022/09/16 09:12:04;;;;;;;2.10;2.00;;;;;;;;;;5001700;28;20521;-46
2022/09/16 09:14:59;;;;;;;3.90;2.10;;;;;;;;;;5003792;28;20045;-48
2022/09/16 09:17:50;;;;;;;3.75;1.70;;;;;;;;;;4992612;28;20082;-47
2022/09/16 09:20:28;;;;;;;3.05;1.77;;;;;;;;;;4994802;28;20383;-46
2022/09/16 09:23:12;;;;;;;2.30;1.90;;;;;;;;;;4991975;28;20034;-45
2022/09/16 09:26:12;;;;;;;3.08;2.08;;;;;;;;;;4994391;28;20565;-47
2022/09/16 09:28:56;;;;;;;6.95;2.25;;;;;;;;;;4993323;28;20077;-48
2022/09/16 09:31:48;;;;;;;3.78;1.77;;;;;;;;;;4995681;28;20101;-47
2022/09/16 09:34:49;;;;;;;3.70;1.90;;;;;;;;;;4993857;28;20038;-49
2022/09/16 09:37:26;;;;;;;2.10;1.90;;;;;;;;;;4988763;28;20081;-46
2022/09/16 09:39:58;;;;;;;2.25;2.03;;;;;;;;;;4997072;28;20490;-48
2022/09/16 09:42:29;;;;;;;;;;;;;;;;;;4994401;28;20511;-47
2022/09/16 09:44:54;;;;;;;2.15;1.80;;;;;;;;;;4993117;28;20417;-48
2022/09/16 09:47:35;;;;;;;2.88;2.10;;;;;;;;;;4992826;28;20046;-46
2022/09/16 09:50:22;;;;;;;6.82;2.08;;;;;;;;;;4989140;28;20057;-46
2022/09/16 09:52:48;;;;;;;2.40;2.22;;;;;;;;;;4996014;28;20046;-49
2022/09/16 09:55:17;;;;;;;2.70;2.30;;;;;;;;;;5018552;28;20046;-47
2022/09/16 09:57:54;;;;;;;2.95;2.10;;;;;;;;;;5020623;28;20136;-50
2022/09/16 10:00:20;;;;;;;2.40;2.20;;;;;;;;;;5023044;28;20116;-50
2022/09/16 10:02:47;;;;;;;5.55;2.35;;;;;;;;;;5004920;28;20034;-46
2022/09/16 10:05:25;;;;;;;3.75;2.58;;;;;;;;;;5003746;28;20022;-48
2022/09/16 10:07:54;;;;;;;5.82;2.22;;;;;;;;;;5023273;28;20043;-49
2022/09/16 10:10:25;;;;;;;2.60;2.40;;;;;;;;;;5021602;28;20584;-47
2022/09/16 10:12:51;;;;;;;3.47;2.00;;;;;;;;;;5024820;28;20033;-50
2022/09/16 10:15:22;;;;;;;2.90;2.30;;;;;;;;;;5020150;28;20033;-47
2022/09/16 10:17:50;;;;;;;4.68;2.40;;;;;;;;;;5020048;28;20032;-48
2022/09/16 10:20:25;;;;;;;2.95;2.35;;;;;;;;;;5019488;28;20038;-46
2022/09/16 10:23:01;;;;;;;3.58;2.40;;;;;;;;;;5001551;28;20034;-46
2022/09/16 10:25:30;;;;;;;4.43;2.33;;;;;;;;;;5004947;28;20037;-46
2022/09/16 10:28:04;;;;;;;3.28;2.90;;;;;;;;;;5024147;28;20063;-46
2022/09/16 10:30:42;;;;;;;2.90;2.47;;;;;;;;;;5018384;28;20569;-47
2022/09/16 10:33:18;;;;;;;3.78;2.88;;;;;;;;;;5005522;28;20078;-46
2022/09/16 10:35:56;;;;;;;3.83;2.80;;;;;;;;;;5003213;28;20053;-48
2022/09/16 10:38:25;;;;;;;2.47;2.28;;;;;;;;;;5004947;28;20116;-47
2022/09/16 10:41:00;;;;;;;3.67;2.90;;;;;;;;;;5012017;28;20091;-50
2022/09/16 10:43:27;;;;;;;5.43;2.67;;;;;;;;;;5023259;28;20068;-49
2022/09/16 10:45:53;;;;;;;10.95;3.08;;;;;;;;;;5015559;28;20038;-46
2022/09/16 10:48:23;;;;;;;3.67;2.75;;;;;;;;;;5006194;28;20037;-50
2022/09/16 10:51:00;;;;;;;5.65;2.92;;;;;;;;;;5002962;28;20410;-47
2022/09/16 10:53:31;;;;;;;4.72;2.72;;;;;;;;;;5006266;28;20462;-46
2022/09/16 10:55:59;;;;;;;3.08;2.78;;;;;;;;;;5011951;28;20058;-50
2022/09/16 10:58:25;;;;;;;4.57;2.72;;;;;;;;;;5023554;28;20077;-46
2022/09/16 11:01:32;;;;;;;3.35;2.85;;;;;;;;;;5022844;28;20529;-46
2022/09/16 11:04:15;;;;;;;4.03;3.08;;;;;;;;;;5023916;28;20042;-46
2022/09/16 11:07:05;;;;;;;4.05;2.80;;;;;;;;;;5011548;28;20042;-46
2022/09/16 11:09:55;;;;;;;4.63;2.90;;;;;;;;;;5004817;28;20026;-49
2022/09/16 11:12:40;;;;;;;3.53;2.67;;;;;;;;;;5022076;28;20068;-48
2022/09/16 11:15:17;;;;;;;3.45;3.15;;;;;;;;;;5025172;28;20038;-46
2022/09/16 11:18:13;;;;;;;3.47;2.72;;;;;;;;;;5005405;28;20485;-46
2022/09/16 11:21:16;;;;;;;5.32;2.90;;;;;;;;;;5002037;28;20064;-47
2022/09/16 11:23:52;;;;;;;4.00;2.88;;;;;;;;;;5007563;28;20033;-48
2022/09/16 11:26:30;;;;;;;3.08;2.78;;;;;;;;;;5018155;28;20033;-45
2022/09/16 11:29:09;;;;;;;4.30;3.17;;;;;;;;;;5027330;28;20029;-48
2022/09/16 11:31:43;;;;;;;6.40;2.85;;;;;;;;;;5012498;28;20048;-46
2022/09/16 11:34:34;;;;;;;4.40;3.05;;;;;;;;;;5006885;28;20025;-47
2022/09/16 11:37:08;;;;;;;3.25;2.42;;;;;;;;;;5006910;28;20069;-48
2022/09/16 11:39:54;;;;;;;3.17;2.90;;;;;;;;;;5002640;28;20057;-46
2022/09/16 11:42:33;;;;;;;3.25;2.90;;;;;;;;;;4958181;28;20125;-45
2022/09/16 11:45:04;;;;;;;3.50;3.20;;;;;;;;;;4966601;28;20043;-45
2022/09/16 11:47:42;;;;;;;3.05;2.85;;;;;;;;;;4960592;28;20042;-47
2022/09/16 11:50:11;;;;;;;3.70;3.10;;;;;;;;;;4966207;28;20023;-46
2022/09/16 11:52:39;;;;;;;5.18;3.05;;;;;;;;;;4968114;28;20110;-46
2022/09/16 11:55:34;;;;;;;3.85;2.72;;;;;;;;;;4971205;28;20358;-46
2022/09/16 11:58:13;;;;;;;4.75;2.65;;;;;;;;;;4965379;28;20527;-46
2022/09/16 12:00:40;;;;;;;5.72;2.75;;;;;;;;;;4968186;28;20060;-48
2022/09/16 12:03:17;;;;;;;3.08;2.78;;;;;;;;;;4967502;28;20046;-46
2022/09/16 12:05:52;;;;;;;5.00;2.83;;;;;;;;;;4965122;28;20310;-45
2022/09/16 12:08:55;;;;;;;2.85;2.50;;;;;;;;;;4963549;28;20034;-46
2022/09/16 12:11:35;;;;;;;4.57;2.60;;;;;;;;;;4967266;28;20047;-49
2022/09/16 12:14:21;;;;;;;3.85;2.80;;;;;;;;;;4968497;28;20066;-46
2022/09/16 12:16:55;;;;;;;3.28;2.90;;;;;;;;;;4966629;28;20408;-47
2022/09/16 12:19:32;;;;;;;3.05;2.75;;;;;;;;;;4991793;28;20036;-48
2022/09/16 12:22:10;;;;;;;6.75;2.85;;;;;;;;;;5022404;28;20051;-46
2022/09/16 12:24:50;;;;;;;3.47;2.80;;;;;;;;;;5027157;28;20029;-48
2022/09/16 12:27:37;;;;;;;3.55;2.83;;;;;;;;;;5005395;28;20499;-51
2022/09/16 12:30:15;;;;;;;2.88;2.67;;;;;;;;;;5006768;28;20030;-46
2022/09/16 12:32:54;;;;;;;2.80;2.50;;;;;;;;;;5024394;28;20528;-47
2022/09/16 12:35:29;;;;;;;3.05;2.83;;;;;;;;;;5023204;28;20038;-50
2022/09/16 12:37:56;;;;;;;4.82;2.90;;;;;;;;;;5023601;28;20087;-46
2022/09/16 12:40:51;;;;;;;2.83;2.53;;;;;;;;;;5021136;28;20475;-46
2022/09/16 12:43:24;;;;;;;2.78;2.55;;;;;;;;;;5005510;28;20026;-47
2022/09/16 12:46:15;;;;;;;3.17;2.88;;;;;;;;;;5002962;28;20052;-45
2022/09/16 12:49:16;;;;;;;2.40;2.20;;;;;;;;;;5002184;28;20173;-48
2022/09/16 12:52:17;;;;;;;4.30;2.50;;;;;;;;;;5004321;28;20053;-48
2022/09/16 12:54:52;;;;;;;2.60;2.38;;;;;;;;;;5004769;28;20030;-46
2022/09/16 12:57:23;;;;;;;4.70;3.00;;;;;;;;;;5013516;28;20141;-48
2022/09/16 13:00:11;;;;;;;3.58;2.60;;;;;;;;;;5004855;28;20312;-40
2022/09/16 13:02:41;;;;;;;4.22;2.70;;;;;;;;;;5028117;28;20053;-45
2022/09/16 13:05:20;;;;;;;3.28;2.60;;;;;;;;;;5021818;28;20500;-46
2022/09/16 13:07:55;;;;;;;3.10;2.47;;;;;;;;;;5003281;28;20021;-46
2022/09/16 13:10:31;;;;;;;6.50;2.60;;;;;;;;;;5003904;28;20108;-46
2022/09/16 13:12:59;;;;;;;2.80;2.55;;;;;;;;;;5025114;28;20531;-46
2022/09/16 13:15:29;;;;;;;3.95;2.65;;;;;;;;;;5023464;28;20036;-46
2022/09/16 13:18:05;;;;;;;2.58;2.38;;;;;;;;;;5021963;28;20406;-45
2022/09/16 13:20:38;;;;;;;4.85;2.33;;;;;;;;;;5023769;28;20046;-50
2022/09/16 13:23:21;;;;;;;5.60;2.40;;;;;;;;;;5023105;28;20033;-47
2022/09/16 13:25:58;;;;;;;2.92;2.42;;;;;;;;;;5016948;28;20049;-51
2022/09/16 13:28:37;;;;;;;3.92;2.70;;;;;;;;;;5006111;28;20109;-45
2022/09/16 13:31:11;;;;;;;4.93;2.70;;;;;;;;;;5005862;28;20049;-50
2022/09/16 13:33:39;;;;;;;4.03;2.60;;;;;;;;;;5004051;28;20040;-48
2022/09/16 13:36:20;;;;;;;2.63;2.42;;;;;;;;;;5013330;28;20045;-46
2022/09/16 13:38:51;;;;;;;4.53;2.60;;;;;;;;;;5026243;28;20127;-46
2022/09/16 13:41:43;;;;;;;4.68;2.40;;;;;;;;;;5020739;28;20045;-47
2022/09/16 13:44:27;;;;;;;3.22;2.40;;;;;;;;;;5021275;28;20029;-48
2022/09/16 13:46:52;;;;;;;3.20;2.28;;;;;;;;;;5010719;28;20042;-51
2022/09/16 13:49:23;;;;;;;4.22;2.25;;;;;;;;;;5006872;28;20152;-45
2022/09/16 13:51:50;;;;;;;5.07;2.57;;;;;;;;;;5013450;28;20046;-47
2022/09/16 13:54:28;;;;;;;4.03;2.58;;;;;;;;;;5015404;28;20026;-49
2022/09/16 13:57:02;;;;;;;2.53;2.33;;;;;;;;;;5010844;28;20522;-49
2022/09/16 13:59:37;;;;;;;4.18;2.50;;;;;;;;;;5010364;28;20097;-45
2022/09/16 14:02:28;;;;;;;2.35;2.20;;;;;;;;;;5013708;28;20065;-47
2022/09/16 14:05:14;;;;;;;2.33;2.20;;;;;;;;;;5016751;28;20501;-49
2022/09/16 14:07:55;;;;;;;2.80;2.30;;;;;;;;;;5017215;28;20041;-45
2022/09/16 14:10:38;;;;;;;6.27;2.53;;;;;;;;;;5016318;28;20072;-46
2022/09/16 14:13:09;;;;;;;4.63;2.25;;;;;;;;;;5009568;28;20390;-47
2022/09/16 14:15:39;;;;;;;2.65;2.45;;;;;;;;;;5008534;28;20033;-46
2022/09/16 14:18:05;;;;;;;5.15;2.38;;;;;;;;;;5025467;28;20025;-46
2022/09/16 14:20:33;;;;;;;2.80;2.33;;;;;;;;;;5018319;28;20076;-46
2022/09/16 14:23:05;;;;;;;4.78;2.15;;;;;;;;;;5005841;28;20106;-49
2022/09/16 14:25:32;;;;;;;2.20;2.10;;;;;;;;;;5009221;28;20040;-48
2022/09/16 14:28:21;;;;;;;6.80;2.47;;;;;;;;;;5024878;28;20034;-45
2022/09/16 14:30:52;;;;;;;5.47;2.25;;;;;;;;;;5015982;28;20042;-49
2022/09/16 14:33:24;;;;;;;2.53;2.33;;;;;;;;;;5007016;28;20034;-48
2022/09/16 14:35:51;;;;;;;;;;;;;;;;;;5004768;28;20057;-45
2022/09/16 14:38:20;;;;;;;2.28;2.08;;;;;;;;;;5006830;28;19940;-47
2022/09/16 14:40:45;;;;;;;3.22;2.30;;;;;;;;;;5008292;28;20048;-48
2022/09/16 14:43:17;;;;;;;4.20;1.92;;;;;;;;;;5024788;28;20041;-48
2022/09/16 14:45:50;;;;;;;1.90;1.80;;;;;;;;;;5021532;28;20041;-48
2022/09/16 14:48:18;;;;;;;8.38;2.10;;;;;;;;;;4997389;28;20029;-48
2022/09/16 14:50:46;;;;;;;2.83;2.33;;;;;;;;;;5007027;28;20045;-45
2022/09/16 14:53:28;;;;;;;2.17;1.80;;;;;;;;;;5021847;28;20116;-45
2022/09/16 14:55:54;;;;;;;2.40;2.15;;;;;;;;;;5021580;28;20062;-45
2022/09/16 14:58:22;;;;;;;3.15;2.20;;;;;;;;;;5024665;28;20045;-46
2022/09/16 15:00:53;;;;;;;3.40;2.33;;;;;;;;;;5023575;28;20429;-45
2022/09/16 15:03:23;;;;;;;4.82;2.42;;;;;;;;;;5022110;28;20053;-46
2022/09/16 15:05:51;;;;;;;4.28;2.03;;;;;;;;;;5018943;28;20045;-45
2022/09/16 15:08:22;;;;;;;2.47;2.30;;;;;;;;;;5002457;28;20030;-50
2022/09/16 15:10:52;;;;;;;3.25;1.90;;;;;;;;;;5002919;28;20042;-49
2022/09/16 15:13:19;;;;;;;6.15;2.40;;;;;;;;;;5001843;28;20022;-45
2022/09/16 15:15:52;;;;;;;2.65;1.80;;;;;;;;;;5005558;28;20621;-45
2022/09/16 15:18:28;;;;;;;4.80;1.95;;;;;;;;;;5022815;28;20044;-46
2022/09/16 15:21:23;;;;;;;2.08;1.88;;;;;;;;;;5013871;28;20041;-46
2022/09/16 15:23:51;;;;;;;3.78;1.73;;;;;;;;;;5005377;28;20100;-47